sensor_id;sensor_type;location;lat;lon;timestamp;temperature;humidity
23637;DHT22;11995;50.842;4.456;2022-08-01T00:01:53;21.20;99.90
23637;DHT22;11995;50.842;4.456;2022-08-01T00:04:20;21.20;99.90
23637;DHT22;11995;50.842;4.456;2022-08-01T00:06:47;21.20;99.90
23637;DHT22;11995;50.842;4.456;2022-08-01T00:09:14;21.20;99.90
23637;DHT22;11995;50.842;4.456;2022-08-01T00:11:41;21.30;99.90
23637;DHT22;11995;50.842;4.456;2022-08-01T00:14:08;21.20;99.90
23637;DHT22;11995;50.842;4.456;2022-08-01T00:16:37;21.10;99.90
23637;DHT22;11995;50.842;4.456;2022-08-01T00:19:04;21.00;99.90
23637;DHT22;11995;50.842;4.456;2022-08-01T00:21:31;20.90;99.90
23637;DHT22;11995;50.842;4.456;2022-08-01T00:23:58;20.90;99.90
23637;DHT22;11995;50.842;4.456;2022-08-01T00:26:25;20.90;99.90
23637;DHT22;11995;50.842;4.456;2022-08-01T00:28:51;20.80;99.90
23637;DHT22;11995;50.842;4.456;2022-08-01T00:31:18;20.70;99.90
23637;DHT22;11995;50.842;4.456;2022-08-01T00:33:45;20.80;99.90
23637;DHT22;11995;50.842;4.456;2022-08-01T00:36:12;21.00;99.90
23637;DHT22;11995;50.842;4.456;2022-08-01T00:38:38;21.00;99.90
23637;DHT22;11995;50.842;4.456;2022-08-01T00:41:07;21.00;99.90
23637;DHT22;11995;50.842;4.456;2022-08-01T00:43:34;20.90;99.90
23637;DHT22;11995;50.842;4.456;2022-08-01T00:46:00;20.90;99.90
23637;DHT22;11995;50.842;4.456;2022-08-01T00:48:27;20.80;99.90
23637;DHT22;11995;50.842;4.456;2022-08-01T00:50:54;20.80;99.90
23637;DHT22;11995;50.842;4.456;2022-08-01T00:53:21;20.80;99.90
23637;DHT22;11995;50.842;4.456;2022-08-01T00:55:48;20.90;99.90
23637;DHT22;11995;50.842;4.456;2022-08-01T00:58:14;20.90;99.90
23637;DHT22;11995;50.842;4.456;2022-08-01T01:00:41;20.90;99.90
23637;DHT22;11995;50.842;4.456;2022-08-01T01:03:08;20.80;99.90
23637;DHT22;11995;50.842;4.456;2022-08-01T01:05:40;20.90;99.90
23637;DHT22;11995;50.842;4.456;2022-08-01T01:08:12;20.90;99.90
23637;DHT22;11995;50.842;4.456;2022-08-01T01:10:46;21.00;99.90
23637;DHT22;11995;50.842;4.456;2022-08-01T01:13:35;20.90;99.90
23637;DHT22;11995;50.842;4.456;2022-08-01T01:15:41;20.90;99.90
23637;DHT22;11995;50.842;4.456;2022-08-01T01:20:40;20.90;99.90
23637;DHT22;11995;50.842;4.456;2022-08-01T01:31:08;20.90;99.90
23637;DHT22;11995;50.842;4.456;2022-08-01T01:33:36;20.90;99.90
23637;DHT22;11995;50.842;4.456;2022-08-01T01:36:05;20.80;99.90
23637;DHT22;11995;50.842;4.456;2022-08-01T01:38:33;20.70;99.90
23637;DHT22;11995;50.842;4.456;2022-08-01T01:41:01;20.50;99.90
23637;DHT22;11995;50.842;4.456;2022-08-01T01:43:29;20.40;99.90
23637;DHT22;11995;50.842;4.456;2022-08-01T01:45:56;20.60;99.90
23637;DHT22;11995;50.842;4.456;2022-08-01T01:48:23;20.70;99.90
23637;DHT22;11995;50.842;4.456;2022-08-01T01:50:51;20.70;99.90
23637;DHT22;11995;50.842;4.456;2022-08-01T01:53:20;20.50;99.90
23637;DHT22;11995;50.842;4.456;2022-08-01T01:55:48;20.40;99.90
23637;DHT22;11995;50.842;4.456;2022-08-01T01:58:15;20.30;99.90
23637;DHT22;11995;50.842;4.456;2022-08-01T02:00:42;20.30;99.90
23637;DHT22;11995;50.842;4.456;2022-08-01T02:03:11;20.30;99.90
23637;DHT22;11995;50.842;4.456;2022-08-01T02:05:38;20.30;99.90
23637;DHT22;11995;50.842;4.456;2022-08-01T02:08:06;20.30;99.90
23637;DHT22;11995;50.842;4.456;2022-08-01T02:10:34;20.40;99.90
23637;DHT22;11995;50.842;4.456;2022-08-01T02:13:03;20.40;99.90
23637;DHT22;11995;50.842;4.456;2022-08-01T02:15:30;20.30;99.90
23637;DHT22;11995;50.842;4.456;2022-08-01T02:17:57;20.30;99.90
23637;DHT22;11995;50.842;4.456;2022-08-01T02:20:27;20.30;99.90
23637;DHT22;11995;50.842;4.456;2022-08-01T02:23:00;20.40;99.90
23637;DHT22;11995;50.842;4.456;2022-08-01T02:25:27;20.30;99.90
23637;DHT22;11995;50.842;4.456;2022-08-01T02:28:06;20.30;99.90
23637;DHT22;11995;50.842;4.456;2022-08-01T02:30:35;20.40;99.90
23637;DHT22;11995;50.842;4.456;2022-08-01T02:33:08;20.50;99.90
23637;DHT22;11995;50.842;4.456;2022-08-01T02:35:33;20.50;99.90
23637;DHT22;11995;50.842;4.456;2022-08-01T02:37:59;20.60;99.90
23637;DHT22;11995;50.842;4.456;2022-08-01T02:40:28;20.80;99.90
23637;DHT22;11995;50.842;4.456;2022-08-01T02:42:56;20.80;99.90
23637;DHT22;11995;50.842;4.456;2022-08-01T02:45:25;20.90;99.90
23637;DHT22;11995;50.842;4.456;2022-08-01T02:47:57;20.80;99.90
23637;DHT22;11995;50.842;4.456;2022-08-01T02:50:20;20.80;99.90
23637;DHT22;11995;50.842;4.456;2022-08-01T02:52:48;20.80;99.90
23637;DHT22;11995;50.842;4.456;2022-08-01T02:55:16;20.70;99.90
23637;DHT22;11995;50.842;4.456;2022-08-01T02:57:43;20.70;99.90
23637;DHT22;11995;50.842;4.456;2022-08-01T03:00:12;20.70;99.90
23637;DHT22;11995;50.842;4.456;2022-08-01T03:02:39;20.70;99.90
23637;DHT22;11995;50.842;4.456;2022-08-01T03:05:07;20.70;99.90
23637;DHT22;11995;50.842;4.456;2022-08-01T03:07:34;20.70;99.90
23637;DHT22;11995;50.842;4.456;2022-08-01T03:10:02;20.70;99.90
23637;DHT22;11995;50.842;4.456;2022-08-01T03:12:30;20.70;99.90
23637;DHT22;11995;50.842;4.456;2022-08-01T03:14:57;20.70;99.90
23637;DHT22;11995;50.842;4.456;2022-08-01T03:17:26;20.70;99.90
23637;DHT22;11995;50.842;4.456;2022-08-01T03:19:54;20.60;99.90
23637;DHT22;11995;50.842;4.456;2022-08-01T03:22:24;20.40;99.90
23637;DHT22;11995;50.842;4.456;2022-08-01T03:24:52;20.30;99.90
23637;DHT22;11995;50.842;4.456;2022-08-01T03:27:20;20.30;99.90
23637;DHT22;11995;50.842;4.456;2022-08-01T03:29:48;20.30;99.90
23637;DHT22;11995;50.842;4.456;2022-08-01T03:32:16;20.10;99.90
23637;DHT22;11995;50.842;4.456;2022-08-01T03:34:43;20.10;99.90
23637;DHT22;11995;50.842;4.456;2022-08-01T03:37:11;20.10;99.90
23637;DHT22;11995;50.842;4.456;2022-08-01T03:39:49;20.10;99.90
23637;DHT22;11995;50.842;4.456;2022-08-01T03:42:18;20.10;99.90
23637;DHT22;11995;50.842;4.456;2022-08-01T03:44:48;20.10;99.90
23637;DHT22;11995;50.842;4.456;2022-08-01T03:47:16;20.00;99.90
23637;DHT22;11995;50.842;4.456;2022-08-01T03:49:44;20.10;99.90
23637;DHT22;11995;50.842;4.456;2022-08-01T03:52:13;20.00;99.90
23637;DHT22;11995;50.842;4.456;2022-08-01T03:54:42;20.00;99.90
23637;DHT22;11995;50.842;4.456;2022-08-01T03:57:08;20.00;99.90
23637;DHT22;11995;50.842;4.456;2022-08-01T03:59:36;20.00;99.90
23637;DHT22;11995;50.842;4.456;2022-08-01T04:02:04;20.00;99.90
23637;DHT22;11995;50.842;4.456;2022-08-01T04:04:31;19.90;99.90
23637;DHT22;11995;50.842;4.456;2022-08-01T04:06:58;19.90;99.90
23637;DHT22;11995;50.842;4.456;2022-08-01T04:09:26;19.90;99.90
23637;DHT22;11995;50.842;4.456;2022-08-01T04:11:53;19.90;99.90
23637;DHT22;11995;50.842;4.456;2022-08-01T04:14:20;19.90;99.90
23637;DHT22;11995;50.842;4.456;2022-08-01T04:16:47;19.90;99.90
23637;DHT22;11995;50.842;4.456;2022-08-01T04:19:14;19.90;99.90
23637;DHT22;11995;50.842;4.456;2022-08-01T04:21:41;19.90;99.90
23637;DHT22;11995;50.842;4.456;2022-08-01T04:24:16;19.80;99.90
23637;DHT22;11995;50.842;4.456;2022-08-01T04:26:45;19.80;99.90
23637;DHT22;11995;50.842;4.456;2022-08-01T04:29:13;19.80;99.90
23637;DHT22;11995;50.842;4.456;2022-08-01T04:31:42;19.80;99.90
23637;DHT22;11995;50.842;4.456;2022-08-01T04:34:10;19.80;99.90
23637;DHT22;11995;50.842;4.456;2022-08-01T04:36:37;19.90;99.90
23637;DHT22;11995;50.842;4.456;2022-08-01T04:39:06;20.00;99.90
23637;DHT22;11995;50.842;4.456;2022-08-01T04:41:33;20.00;99.90
23637;DHT22;11995;50.842;4.456;2022-08-01T04:44:02;20.10;99.90
23637;DHT22;11995;50.842;4.456;2022-08-01T04:46:29;20.10;99.90
23637;DHT22;11995;50.842;4.456;2022-08-01T04:48:58;20.10;99.90
23637;DHT22;11995;50.842;4.456;2022-08-01T04:51:26;20.00;99.90
23637;DHT22;11995;50.842;4.456;2022-08-01T04:53:53;19.80;99.90
23637;DHT22;11995;50.842;4.456;2022-08-01T04:56:19;19.90;99.90
23637;DHT22;11995;50.842;4.456;2022-08-01T04:58:47;20.00;99.90
23637;DHT22;11995;50.842;4.456;2022-08-01T05:01:13;20.00;99.90
23637;DHT22;11995;50.842;4.456;2022-08-01T05:03:41;20.00;99.90
23637;DHT22;11995;50.842;4.456;2022-08-01T05:06:08;20.10;99.90
23637;DHT22;11995;50.842;4.456;2022-08-01T05:08:34;20.10;99.90
23637;DHT22;11995;50.842;4.456;2022-08-01T05:11:01;20.10;99.90
23637;DHT22;11995;50.842;4.456;2022-08-01T05:13:28;20.20;99.90
23637;DHT22;11995;50.842;4.456;2022-08-01T05:15:57;20.20;99.90
23637;DHT22;11995;50.842;4.456;2022-08-01T05:18:23;20.30;99.90
23637;DHT22;11995;50.842;4.456;2022-08-01T05:20:50;20.30;99.90
23637;DHT22;11995;50.842;4.456;2022-08-01T05:23:17;20.30;99.90
23637;DHT22;11995;50.842;4.456;2022-08-01T05:25:44;20.30;99.90
23637;DHT22;11995;50.842;4.456;2022-08-01T05:28:11;20.30;99.90
23637;DHT22;11995;50.842;4.456;2022-08-01T05:30:38;20.40;99.90
23637;DHT22;11995;50.842;4.456;2022-08-01T05:33:05;20.40;99.90
23637;DHT22;11995;50.842;4.456;2022-08-01T05:35:32;20.40;99.90
23637;DHT22;11995;50.842;4.456;2022-08-01T05:37:59;20.40;99.90
23637;DHT22;11995;50.842;4.456;2022-08-01T05:40:26;20.30;99.90
23637;DHT22;11995;50.842;4.456;2022-08-01T05:42:53;20.20;99.90
23637;DHT22;11995;50.842;4.456;2022-08-01T05:45:19;20.20;99.90
23637;DHT22;11995;50.842;4.456;2022-08-01T05:47:46;20.10;99.90
23637;DHT22;11995;50.842;4.456;2022-08-01T05:50:13;20.20;99.90
23637;DHT22;11995;50.842;4.456;2022-08-01T05:52:40;20.20;99.90
23637;DHT22;11995;50.842;4.456;2022-08-01T05:55:07;20.20;99.90
23637;DHT22;11995;50.842;4.456;2022-08-01T05:57:35;20.40;99.90
23637;DHT22;11995;50.842;4.456;2022-08-01T06:00:02;20.60;99.90
23637;DHT22;11995;50.842;4.456;2022-08-01T06:02:29;20.70;99.90
23637;DHT22;11995;50.842;4.456;2022-08-01T06:04:56;20.70;99.90
23637;DHT22;11995;50.842;4.456;2022-08-01T06:07:24;20.70;99.90
23637;DHT22;11995;50.842;4.456;2022-08-01T06:09:51;20.70;99.90
23637;DHT22;11995;50.842;4.456;2022-08-01T06:12:18;20.70;99.90
23637;DHT22;11995;50.842;4.456;2022-08-01T06:14:44;20.70;99.90
23637;DHT22;11995;50.842;4.456;2022-08-01T06:17:11;20.70;99.90
23637;DHT22;11995;50.842;4.456;2022-08-01T06:19:38;20.80;99.90
23637;DHT22;11995;50.842;4.456;2022-08-01T06:22:05;20.80;99.90
23637;DHT22;11995;50.842;4.456;2022-08-01T06:24:32;20.90;99.90
23637;DHT22;11995;50.842;4.456;2022-08-01T06:26:59;20.90;99.90
23637;DHT22;11995;50.842;4.456;2022-08-01T06:29:25;20.80;99.90
23637;DHT22;11995;50.842;4.456;2022-08-01T06:31:52;20.80;99.90
23637;DHT22;11995;50.842;4.456;2022-08-01T06:34:19;20.90;99.90
23637;DHT22;11995;50.842;4.456;2022-08-01T06:36:47;20.80;99.90
23637;DHT22;11995;50.842;4.456;2022-08-01T06:39:14;20.80;99.90
23637;DHT22;11995;50.842;4.456;2022-08-01T06:41:41;20.80;99.90
23637;DHT22;11995;50.842;4.456;2022-08-01T06:44:07;20.80;99.90
23637;DHT22;11995;50.842;4.456;2022-08-01T06:46:34;20.90;99.90
23637;DHT22;11995;50.842;4.456;2022-08-01T06:49:01;21.20;99.90
23637;DHT22;11995;50.842;4.456;2022-08-01T06:51:28;21.20;99.90
23637;DHT22;11995;50.842;4.456;2022-08-01T06:53:55;21.10;99.90
23637;DHT22;11995;50.842;4.456;2022-08-01T06:56:22;21.20;99.90
23637;DHT22;11995;50.842;4.456;2022-08-01T06:58:49;21.20;99.90
23637;DHT22;11995;50.842;4.456;2022-08-01T07:01:16;21.20;99.90
23637;DHT22;11995;50.842;4.456;2022-08-01T07:03:43;21.30;99.90
23637;DHT22;11995;50.842;4.456;2022-08-01T07:06:10;21.20;99.90
23637;DHT22;11995;50.842;4.456;2022-08-01T07:08:37;21.10;99.90
23637;DHT22;11995;50.842;4.456;2022-08-01T07:11:03;21.10;99.90
23637;DHT22;11995;50.842;4.456;2022-08-01T07:13:30;21.10;99.90
23637;DHT22;11995;50.842;4.456;2022-08-01T07:16:01;21.10;99.90
23637;DHT22;11995;50.842;4.456;2022-08-01T07:18:28;21.10;99.90
23637;DHT22;11995;50.842;4.456;2022-08-01T07:20:55;21.20;99.90
23637;DHT22;11995;50.842;4.456;2022-08-01T07:23:21;21.30;99.90
23637;DHT22;11995;50.842;4.456;2022-08-01T07:25:48;21.30;99.90
23637;DHT22;11995;50.842;4.456;2022-08-01T07:28:16;21.50;99.90
23637;DHT22;11995;50.842;4.456;2022-08-01T07:30:43;21.60;99.90
23637;DHT22;11995;50.842;4.456;2022-08-01T07:33:13;21.80;99.90
23637;DHT22;11995;50.842;4.456;2022-08-01T07:35:40;21.90;99.90
23637;DHT22;11995;50.842;4.456;2022-08-01T07:38:07;22.20;99.90
23637;DHT22;11995;50.842;4.456;2022-08-01T07:40:34;22.00;99.90
23637;DHT22;11995;50.842;4.456;2022-08-01T07:43:02;21.90;99.90
23637;DHT22;11995;50.842;4.456;2022-08-01T07:45:29;22.00;99.90
23637;DHT22;11995;50.842;4.456;2022-08-01T07:48:01;21.90;99.90
23637;DHT22;11995;50.842;4.456;2022-08-01T07:50:25;21.90;99.90
23637;DHT22;11995;50.842;4.456;2022-08-01T07:52:52;22.20;99.90
23637;DHT22;11995;50.842;4.456;2022-08-01T07:55:18;22.20;99.90
23637;DHT22;11995;50.842;4.456;2022-08-01T07:57:45;22.20;99.90
23637;DHT22;11995;50.842;4.456;2022-08-01T08:00:12;22.10;99.90
23637;DHT22;11995;50.842;4.456;2022-08-01T08:02:39;22.20;99.90
23637;DHT22;11995;50.842;4.456;2022-08-01T08:05:06;22.10;99.90
23637;DHT22;11995;50.842;4.456;2022-08-01T08:07:33;22.10;99.90
23637;DHT22;11995;50.842;4.456;2022-08-01T08:10:00;22.10;99.90
23637;DHT22;11995;50.842;4.456;2022-08-01T08:12:27;22.10;99.90
23637;DHT22;11995;50.842;4.456;2022-08-01T08:14:54;22.30;99.90
23637;DHT22;11995;50.842;4.456;2022-08-01T08:17:20;22.00;99.90
23637;DHT22;11995;50.842;4.456;2022-08-01T08:19:47;22.20;99.90
23637;DHT22;11995;50.842;4.456;2022-08-01T08:22:16;22.40;99.90
23637;DHT22;11995;50.842;4.456;2022-08-01T08:24:43;22.60;99.90
23637;DHT22;11995;50.842;4.456;2022-08-01T08:27:10;22.70;99.90
23637;DHT22;11995;50.842;4.456;2022-08-01T08:29:37;22.90;99.90
23637;DHT22;11995;50.842;4.456;2022-08-01T08:32:03;22.90;99.90
23637;DHT22;11995;50.842;4.456;2022-08-01T08:34:30;23.00;99.90
23637;DHT22;11995;50.842;4.456;2022-08-01T08:36:57;23.00;99.90
23637;DHT22;11995;50.842;4.456;2022-08-01T08:39:25;22.90;99.90
23637;DHT22;11995;50.842;4.456;2022-08-01T08:41:53;23.00;99.90
23637;DHT22;11995;50.842;4.456;2022-08-01T08:44:21;23.10;99.90
23637;DHT22;11995;50.842;4.456;2022-08-01T08:46:50;22.80;99.90
23637;DHT22;11995;50.842;4.456;2022-08-01T08:49:22;22.70;99.90
23637;DHT22;11995;50.842;4.456;2022-08-01T08:51:50;22.60;99.90
23637;DHT22;11995;50.842;4.456;2022-08-01T08:54:18;22.70;99.90
23637;DHT22;11995;50.842;4.456;2022-08-01T08:56:46;22.60;99.90
23637;DHT22;11995;50.842;4.456;2022-08-01T08:59:13;22.60;99.90
23637;DHT22;11995;50.842;4.456;2022-08-01T09:01:40;22.60;99.90
23637;DHT22;11995;50.842;4.456;2022-08-01T09:04:07;22.50;99.90
23637;DHT22;11995;50.842;4.456;2022-08-01T09:06:34;22.60;99.90
23637;DHT22;11995;50.842;4.456;2022-08-01T09:09:03;22.70;99.90
23637;DHT22;11995;50.842;4.456;2022-08-01T09:11:30;22.60;99.90
23637;DHT22;11995;50.842;4.456;2022-08-01T09:14:01;22.80;99.90
23637;DHT22;11995;50.842;4.456;2022-08-01T09:16:29;23.10;99.90
23637;DHT22;11995;50.842;4.456;2022-08-01T09:19:18;23.40;99.90
23637;DHT22;11995;50.842;4.456;2022-08-01T09:21:57;23.80;99.90
23637;DHT22;11995;50.842;4.456;2022-08-01T09:24:25;24.10;99.90
23637;DHT22;11995;50.842;4.456;2022-08-01T09:26:53;24.40;99.90
23637;DHT22;11995;50.842;4.456;2022-08-01T09:29:21;24.40;99.90
23637;DHT22;11995;50.842;4.456;2022-08-01T09:31:49;24.40;99.90
23637;DHT22;11995;50.842;4.456;2022-08-01T09:34:16;24.20;99.90
23637;DHT22;11995;50.842;4.456;2022-08-01T09:36:48;24.20;99.90
23637;DHT22;11995;50.842;4.456;2022-08-01T09:39:17;24.20;99.90
23637;DHT22;11995;50.842;4.456;2022-08-01T09:41:44;24.40;99.90
23637;DHT22;11995;50.842;4.456;2022-08-01T09:44:12;24.20;99.90
23637;DHT22;11995;50.842;4.456;2022-08-01T09:46:52;24.30;99.90
23637;DHT22;11995;50.842;4.456;2022-08-01T09:49:29;24.40;99.90
23637;DHT22;11995;50.842;4.456;2022-08-01T09:51:57;24.30;99.90
23637;DHT22;11995;50.842;4.456;2022-08-01T09:54:28;24.30;99.90
23637;DHT22;11995;50.842;4.456;2022-08-01T09:57:06;24.60;99.90
23637;DHT22;11995;50.842;4.456;2022-08-01T09:59:34;24.40;99.90
23637;DHT22;11995;50.842;4.456;2022-08-01T10:01:53;24.10;99.90
23637;DHT22;11995;50.842;4.456;2022-08-01T10:04:21;23.80;99.90
23637;DHT22;11995;50.842;4.456;2022-08-01T10:06:50;23.90;99.90
23637;DHT22;11995;50.842;4.456;2022-08-01T10:09:28;23.90;99.90
23637;DHT22;11995;50.842;4.456;2022-08-01T10:11:55;24.20;99.90
23637;DHT22;11995;50.842;4.456;2022-08-01T10:14:24;24.50;99.90
23637;DHT22;11995;50.842;4.456;2022-08-01T10:16:52;24.80;99.90
23637;DHT22;11995;50.842;4.456;2022-08-01T10:19:20;24.80;99.90
23637;DHT22;11995;50.842;4.456;2022-08-01T10:21:48;24.70;99.90
23637;DHT22;11995;50.842;4.456;2022-08-01T10:24:17;24.50;99.90
23637;DHT22;11995;50.842;4.456;2022-08-01T10:26:44;24.30;99.90
23637;DHT22;11995;50.842;4.456;2022-08-01T10:29:14;24.30;99.90
23637;DHT22;11995;50.842;4.456;2022-08-01T10:31:44;24.40;99.90
23637;DHT22;11995;50.842;4.456;2022-08-01T10:34:11;24.70;99.90
23637;DHT22;11995;50.842;4.456;2022-08-01T10:36:41;24.60;99.90
23637;DHT22;11995;50.842;4.456;2022-08-01T10:39:12;24.70;99.90
23637;DHT22;11995;50.842;4.456;2022-08-01T10:41:39;24.90;99.90
23637;DHT22;11995;50.842;4.456;2022-08-01T10:44:07;24.90;99.90
23637;DHT22;11995;50.842;4.456;2022-08-01T10:46:39;24.90;99.90
23637;DHT22;11995;50.842;4.456;2022-08-01T10:49:07;24.40;99.90
23637;DHT22;11995;50.842;4.456;2022-08-01T10:51:36;24.30;99.90
23637;DHT22;11995;50.842;4.456;2022-08-01T10:54:08;24.50;99.90
23637;DHT22;11995;50.842;4.456;2022-08-01T10:56:39;24.90;99.90
23637;DHT22;11995;50.842;4.456;2022-08-01T10:59:06;24.90;99.90
23637;DHT22;11995;50.842;4.456;2022-08-01T11:01:33;25.10;99.90
23637;DHT22;11995;50.842;4.456;2022-08-01T11:09:03;25.40;99.90
23637;DHT22;11995;50.842;4.456;2022-08-01T11:11:31;25.10;99.90
23637;DHT22;11995;50.842;4.456;2022-08-01T11:16:27;24.70;99.90
23637;DHT22;11995;50.842;4.456;2022-08-01T11:18:54;25.00;99.90
23637;DHT22;11995;50.842;4.456;2022-08-01T11:21:21;24.80;99.90
23637;DHT22;11995;50.842;4.456;2022-08-01T11:23:50;24.80;99.90
23637;DHT22;11995;50.842;4.456;2022-08-01T11:26:19;25.20;99.90
23637;DHT22;11995;50.842;4.456;2022-08-01T11:29:10;24.90;99.90
23637;DHT22;11995;50.842;4.456;2022-08-01T11:38:42;25.40;98.30
23637;DHT22;11995;50.842;4.456;2022-08-01T11:41:10;25.30;98.60
23637;DHT22;11995;50.842;4.456;2022-08-01T11:44:00;25.30;99.10
23637;DHT22;11995;50.842;4.456;2022-08-01T11:46:06;25.20;98.70
23637;DHT22;11995;50.842;4.456;2022-08-01T11:48:33;25.40;98.30
23637;DHT22;11995;50.842;4.456;2022-08-01T11:50:59;25.60;98.30
23637;DHT22;11995;50.842;4.456;2022-08-01T11:53:26;25.40;97.30
23637;DHT22;11995;50.842;4.456;2022-08-01T11:55:53;25.50;97.60
23637;DHT22;11995;50.842;4.456;2022-08-01T11:58:25;25.70;97.30
23637;DHT22;11995;50.842;4.456;2022-08-01T12:00:52;25.80;97.00
23637;DHT22;11995;50.842;4.456;2022-08-01T12:03:26;25.70;96.70
23637;DHT22;11995;50.842;4.456;2022-08-01T12:05:53;25.70;96.60
23637;DHT22;11995;50.842;4.456;2022-08-01T12:08:24;25.70;96.60
23637;DHT22;11995;50.842;4.456;2022-08-01T12:10:51;25.40;96.40
23637;DHT22;11995;50.842;4.456;2022-08-01T12:13:18;25.40;97.10
23637;DHT22;11995;50.842;4.456;2022-08-01T12:15:46;25.50;96.90
23637;DHT22;11995;50.842;4.456;2022-08-01T12:18:14;25.60;97.40
23637;DHT22;11995;50.842;4.456;2022-08-01T12:20:42;26.00;97.50
23637;DHT22;11995;50.842;4.456;2022-08-01T12:23:11;26.00;96.70
23637;DHT22;11995;50.842;4.456;2022-08-01T12:25:39;25.90;97.10
23637;DHT22;11995;50.842;4.456;2022-08-01T12:28:07;25.90;97.00
23637;DHT22;11995;50.842;4.456;2022-08-01T12:30:35;26.10;96.40
23637;DHT22;11995;50.842;4.456;2022-08-01T12:33:02;26.20;96.90
23637;DHT22;11995;50.842;4.456;2022-08-01T12:35:30;26.30;96.20
23637;DHT22;11995;50.842;4.456;2022-08-01T12:37:58;26.10;95.40
23637;DHT22;11995;50.842;4.456;2022-08-01T12:40:30;26.30;95.60
23637;DHT22;11995;50.842;4.456;2022-08-01T12:42:59;26.00;95.70
23637;DHT22;11995;50.842;4.456;2022-08-01T12:45:29;26.10;95.60
23637;DHT22;11995;50.842;4.456;2022-08-01T12:47:56;26.20;94.10
23637;DHT22;11995;50.842;4.456;2022-08-01T12:50:27;26.40;94.80
23637;DHT22;11995;50.842;4.456;2022-08-01T12:52:54;26.60;95.60
23637;DHT22;11995;50.842;4.456;2022-08-01T12:55:26;26.40;95.80
23637;DHT22;11995;50.842;4.456;2022-08-01T12:58:04;26.40;95.80
23637;DHT22;11995;50.842;4.456;2022-08-01T13:00:27;26.20;95.80
23637;DHT22;11995;50.842;4.456;2022-08-01T13:03:07;26.30;95.90
23637;DHT22;11995;50.842;4.456;2022-08-01T13:05:44;26.00;95.50
23637;DHT22;11995;50.842;4.456;2022-08-01T13:08:17;25.90;95.80
23637;DHT22;11995;50.842;4.456;2022-08-01T13:10:40;26.00;95.50
23637;DHT22;11995;50.842;4.456;2022-08-01T13:13:07;26.00;95.10
23637;DHT22;11995;50.842;4.456;2022-08-01T13:15:35;25.80;95.40
23637;DHT22;11995;50.842;4.456;2022-08-01T13:20:49;25.70;95.50
23637;DHT22;11995;50.842;4.456;2022-08-01T13:23:19;25.70;95.40
23637;DHT22;11995;50.842;4.456;2022-08-01T13:25:51;25.60;95.20
23637;DHT22;11995;50.842;4.456;2022-08-01T13:28:24;25.80;95.90
23637;DHT22;11995;50.842;4.456;2022-08-01T13:33:21;26.00;94.30
23637;DHT22;11995;50.842;4.456;2022-08-01T13:35:50;25.80;93.70
23637;DHT22;11995;50.842;4.456;2022-08-01T13:38:17;25.70;93.90
23637;DHT22;11995;50.842;4.456;2022-08-01T13:40:44;25.70;93.50
23637;DHT22;11995;50.842;4.456;2022-08-01T13:43:11;25.80;93.10
23637;DHT22;11995;50.842;4.456;2022-08-01T13:45:38;25.80;93.60
23637;DHT22;11995;50.842;4.456;2022-08-01T13:48:06;25.50;93.60
23637;DHT22;11995;50.842;4.456;2022-08-01T13:50:33;25.40;93.60
23637;DHT22;11995;50.842;4.456;2022-08-01T13:53:00;25.40;94.00
23637;DHT22;11995;50.842;4.456;2022-08-01T13:55:26;25.40;93.70
23637;DHT22;11995;50.842;4.456;2022-08-01T13:57:53;25.60;93.60
23637;DHT22;11995;50.842;4.456;2022-08-01T14:00:20;25.80;92.60
23637;DHT22;11995;50.842;4.456;2022-08-01T14:02:47;25.80;92.30
23637;DHT22;11995;50.842;4.456;2022-08-01T14:05:13;25.60;92.10
23637;DHT22;11995;50.842;4.456;2022-08-01T14:07:40;25.60;92.90
23637;DHT22;11995;50.842;4.456;2022-08-01T14:10:08;25.80;93.60
23637;DHT22;11995;50.842;4.456;2022-08-01T14:12:35;25.90;93.10
23637;DHT22;11995;50.842;4.456;2022-08-01T14:15:02;25.90;92.60
23637;DHT22;11995;50.842;4.456;2022-08-01T14:17:29;25.80;92.90
23637;DHT22;11995;50.842;4.456;2022-08-01T14:19:55;25.80;92.50
23637;DHT22;11995;50.842;4.456;2022-08-01T14:22:24;26.00;92.30
23637;DHT22;11995;50.842;4.456;2022-08-01T14:24:51;25.90;91.90
23637;DHT22;11995;50.842;4.456;2022-08-01T14:27:17;25.90;91.80
23637;DHT22;11995;50.842;4.456;2022-08-01T14:29:44;25.90;91.20
23637;DHT22;11995;50.842;4.456;2022-08-01T14:32:12;25.70;91.10
23637;DHT22;11995;50.842;4.456;2022-08-01T14:34:39;25.80;91.40
23637;DHT22;11995;50.842;4.456;2022-08-01T14:37:06;25.90;91.20
23637;DHT22;11995;50.842;4.456;2022-08-01T14:39:32;25.90;91.30
23637;DHT22;11995;50.842;4.456;2022-08-01T14:41:59;25.90;91.30
23637;DHT22;11995;50.842;4.456;2022-08-01T14:44:26;26.00;91.40
23637;DHT22;11995;50.842;4.456;2022-08-01T14:46:54;26.20;91.20
23637;DHT22;11995;50.842;4.456;2022-08-01T14:49:21;26.40;90.90
23637;DHT22;11995;50.842;4.456;2022-08-01T14:51:48;26.20;90.30
23637;DHT22;11995;50.842;4.456;2022-08-01T14:54:16;26.20;90.80
23637;DHT22;11995;50.842;4.456;2022-08-01T14:56:43;26.10;90.90
23637;DHT22;11995;50.842;4.456;2022-08-01T14:59:09;26.00;91.00
23637;DHT22;11995;50.842;4.456;2022-08-01T15:01:36;25.90;91.70
23637;DHT22;11995;50.842;4.456;2022-08-01T15:04:03;25.80;91.20
23637;DHT22;11995;50.842;4.456;2022-08-01T15:06:30;25.70;91.50
23637;DHT22;11995;50.842;4.456;2022-08-01T15:08:57;25.70;91.30
23637;DHT22;11995;50.842;4.456;2022-08-01T15:11:23;25.60;91.50
23637;DHT22;11995;50.842;4.456;2022-08-01T15:13:50;25.60;91.70
23637;DHT22;11995;50.842;4.456;2022-08-01T15:16:19;25.70;91.40
23637;DHT22;11995;50.842;4.456;2022-08-01T15:18:46;25.90;91.00
23637;DHT22;11995;50.842;4.456;2022-08-01T15:21:13;25.90;90.40
23637;DHT22;11995;50.842;4.456;2022-08-01T15:23:39;25.70;90.20
23637;DHT22;11995;50.842;4.456;2022-08-01T15:26:06;25.70;90.20
23637;DHT22;11995;50.842;4.456;2022-08-01T15:28:35;26.00;89.70
23637;DHT22;11995;50.842;4.456;2022-08-01T15:31:02;26.10;89.50
23637;DHT22;11995;50.842;4.456;2022-08-01T15:33:30;25.70;90.00
23637;DHT22;11995;50.842;4.456;2022-08-01T15:35:57;25.50;90.20
23637;DHT22;11995;50.842;4.456;2022-08-01T15:38:23;25.50;89.30
23637;DHT22;11995;50.842;4.456;2022-08-01T15:40:50;25.60;89.90
23637;DHT22;11995;50.842;4.456;2022-08-01T15:43:17;25.70;89.50
23637;DHT22;11995;50.842;4.456;2022-08-01T15:45:45;25.70;89.30
23637;DHT22;11995;50.842;4.456;2022-08-01T15:50:58;25.70;89.70
23637;DHT22;11995;50.842;4.456;2022-08-01T15:53:25;25.80;89.40
23637;DHT22;11995;50.842;4.456;2022-08-01T15:55:52;25.70;89.60
23637;DHT22;11995;50.842;4.456;2022-08-01T15:58:19;25.90;90.00
23637;DHT22;11995;50.842;4.456;2022-08-01T16:00:46;26.00;89.80
23637;DHT22;11995;50.842;4.456;2022-08-01T16:03:13;26.00;89.00
23637;DHT22;11995;50.842;4.456;2022-08-01T16:05:39;25.80;88.50
23637;DHT22;11995;50.842;4.456;2022-08-01T16:08:08;25.60;89.90